Aviation Digital Data Service (ADDS)

Output produced by METARs form (0323 UTC 21 September 2017)
found at http://www.aviationweather.gov/adds/metars/
 
TKPK 210006Z 2100/2124 14010KT P6SM VCTS SCT015CB BKN035 
     FM210300 13012KT P6SM VCSH SCT025 BKN045 AMD NOT SKED
       
TAF TKPN 202300Z 2100/2124 15015KT 9999 SCT019 
     PROB40 
     TEMPO 2106/2120 SHRA FEW013CB